Ide Min — PC8366 — position and weather

sailwx.info

Track history (hours):
 
Tides and Currents Weather Stations Pressure Air Temp Water Temp Dewpoint Dewpoint Depression Visibility Wind Speed Wind Dir Waves Ship Positions

Ide Min (Netherlands)

Ship's website: http://www.idemin.nl/english/english.html

Last reported at 2014-Jul-25 11:33 UTC. Time now 2014-Jul-25 13:46 UTC.
Position N 54°27' E 010°13'.

Length 40 m; draft 2.4 m.

MMSI: 244537000.

Date/timePositionNaut miles runAvg speedWind from/ knotsBaromVisibWave heightAir tempDewpointWater temp
2014-Jul-25 11:33N 54°27' E 010°13'4 4.1
2014-Jul-25 10:32N 54°31' E 010°10'6 1.3
2014-Jul-25 05:33N 54°35' E 010°02'0 0.0
2014-Jul-25 04:06N 54°35' E 010°02'0 0.0
2014-Jul-25 03:32N 54°35' E 010°02'0 0.0
2014-Jul-25 00:28N 54°35' E 010°02'0 0.0
2014-Jul-24 23:22N 54°35' E 010°02'3 0.2
2014-Jul-24 11:30N 54°38' E 010°03'2 1.7
2014-Jul-24 10:33N 54°39' E 010°03'1 1.2
2014-Jul-24 09:33N 54°40' E 010°02'4 0.4
2014-Jul-24 00:33N 54°40' E 009°56'0 0.0
2014-Jul-23 23:31N 54°40' E 009°56'1 0.2
2014-Jul-23 17:17N 54°41' E 009°57'4 5.2
2014-Jul-23 16:33N 54°41' E 010°04'3 2.7
2014-Jul-23 15:30N 54°43' E 010°04'1 0.8
2014-Jul-23 14:26N 54°44' E 010°04'4 4.5
2014-Jul-23 13:33N 54°48' E 010°06'5 5.0
2014-Jul-23 12:30N 54°53' E 010°05'4 3.7
2014-Jul-23 11:33N 54°57' E 010°05'2 2.2
2014-Jul-23 10:32N 54°59' E 010°04'3 2.9
2014-Jul-23 09:33N 55°02' E 010°06'3 2.9
2014-Jul-23 08:34N 55°04' E 010°08'1 0.8
2014-Jul-23 07:11N 55°03' E 010°10'0 0.0
2014-Jul-23 06:26N 55°03' E 010°10'0 0.0
2014-Jul-23 05:29N 55°03' E 010°10'0 0.0
2014-Jul-23 04:29N 55°03' E 010°10'0 0.0
2014-Jul-23 03:32N 55°03' E 010°10'0 0.0
2014-Jul-23 00:32N 55°03' E 010°10'0 0.0
2014-Jul-22 23:32N 55°03' E 010°10'0 0.0
2014-Jul-22 19:08N 55°03' E 010°10'0 0.0
2014-Jul-22 17:08N 55°03' E 010°10'0 0.0
2014-Jul-22 15:33N 55°03' E 010°10'0 0.0
2014-Jul-22 14:31N 55°03' E 010°10'3 2.2
2014-Jul-22 13:17N 55°03' E 010°14'1 1.6
2014-Jul-22 12:23N 55°04' E 010°14'0 0.0
2014-Jul-22 11:33N 55°04' E 010°14'0 0.0
2014-Jul-22 10:33N 55°04' E 010°14'2 0.3
2014-Jul-22 04:22N 55°06' E 010°14'0 0.0
2014-Jul-22 03:31N 55°06' E 010°14'1 0.1
2014-Jul-21 18:14N 55°04' E 010°14'2 2.7
2014-Jul-21 17:27N 55°02' E 010°12'7 7.6
2014-Jul-21 16:32N 54°55' E 010°10'8 7.9
2014-Jul-21 15:33N 54°48' E 010°12'26 0.7
2014-Jul-20 03:19N 54°22' E 010°09'0 0.0
2014-Jul-20 00:31N 54°22' E 010°09'0 0.0
2014-Jul-19 23:31N 54°22' E 010°09'0 0.0
2014-Jul-19 22:10N 54°22' E 010°09'0 0.0
2014-Jul-19 21:28N 54°22' E 010°09'0 0.0
2014-Jul-19 20:31N 54°22' E 010°09'6 0.2
2014-Jul-18 11:33N 54°28' E 010°12'4 3.8
2014-Jul-18 10:29N 54°31' E 010°07'4 2.0
2014-Jul-18 08:18N 54°35' E 010°03'1 0.5
2014-Jul-18 06:32N 54°35' E 010°02'0 0.0
2014-Jul-18 05:32N 54°35' E 010°02'0 0.0
2014-Jul-18 04:32N 54°35' E 010°02'2 0.2
2014-Jul-17 15:33N 54°37' E 010°03'2 1.9
2014-Jul-17 14:33N 54°39' E 010°03'1 0.6
2014-Jul-17 13:25N 54°39' E 010°02'0 0.0
2014-Jul-17 12:32N 54°39' E 010°02'1 1.5
2014-Jul-17 11:33N 54°41' E 010°01'3 1.3
2014-Jul-17 09:09N 54°39' E 009°56'1 1.4
2014-Jul-17 08:33N 54°40' E 009°56'2 0.6
2014-Jul-17 05:15N 54°41' E 009°59'0 0.0
2014-Jul-17 04:30N 54°41' E 009°59'0 0.0
2014-Jul-17 03:30N 54°41' E 009°59'0 0.0
2014-Jul-16 18:07N 54°41' E 009°59'1 1.7
2014-Jul-16 17:33N 54°41' E 010°01'2 1.9
2014-Jul-16 16:34N 54°41' E 010°04'2 2.0
2014-Jul-16 15:34N 54°43' E 010°06'3 3.3
2014-Jul-16 14:33N 54°46' E 010°08'5 5.2
2014-Jul-16 13:34N 54°51' E 010°09'6 5.6
2014-Jul-16 12:34N 54°57' E 010°12'2 1.6
2014-Jul-16 11:33N 54°58' E 010°11'1 1.1
2014-Jul-16 10:32N 54°59' E 010°10'1 1.0
2014-Jul-16 09:34N 55°00' E 010°10'3 3.0
2014-Jul-16 08:30N 55°03' E 010°12'0 0.0
2014-Jul-15 12:25N 55°03' E 010°11'  
Track history (hours):
 
Tides and Currents Weather Stations Pressure Air Temp Water Temp Dewpoint Dewpoint Depression Visibility Wind Speed Wind Dir Waves Ship Positions

Ide Min (Netherlands)

Ship's website: http://www.idemin.nl/english/english.html

Last reported at 2014-Jul-25 11:33 UTC. Time now 2014-Jul-25 13:46 UTC.
Position N 54°27' E 010°13'.

Length 40 m; draft 2.4 m.

MMSI: 244537000.

Date/timePositionNaut miles runAvg speedWind from/ knotsBaromVisibWave heightAir tempDewpointWater temp
2014-Jul-25 11:33N 54°27' E 010°13'4 4.1
2014-Jul-25 10:32N 54°31' E 010°10'6 1.3
2014-Jul-25 05:33N 54°35' E 010°02'0 0.0
2014-Jul-25 04:06N 54°35' E 010°02'0 0.0
2014-Jul-25 03:32N 54°35' E 010°02'0 0.0
2014-Jul-25 00:28N 54°35' E 010°02'0 0.0
2014-Jul-24 23:22N 54°35' E 010°02'3 0.2
2014-Jul-24 11:30N 54°38' E 010°03'2 1.7
2014-Jul-24 10:33N 54°39' E 010°03'1 1.2
2014-Jul-24 09:33N 54°40' E 010°02'4 0.4
2014-Jul-24 00:33N 54°40' E 009°56'0 0.0
2014-Jul-23 23:31N 54°40' E 009°56'1 0.2
2014-Jul-23 17:17N 54°41' E 009°57'4 5.2
2014-Jul-23 16:33N 54°41' E 010°04'3 2.7
2014-Jul-23 15:30N 54°43' E 010°04'1 0.8
2014-Jul-23 14:26N 54°44' E 010°04'4 4.5
2014-Jul-23 13:33N 54°48' E 010°06'5 5.0
2014-Jul-23 12:30N 54°53' E 010°05'4 3.7
2014-Jul-23 11:33N 54°57' E 010°05'2 2.2
2014-Jul-23 10:32N 54°59' E 010°04'3 2.9
2014-Jul-23 09:33N 55°02' E 010°06'3 2.9
2014-Jul-23 08:34N 55°04' E 010°08'1 0.8
2014-Jul-23 07:11N 55°03' E 010°10'0 0.0
2014-Jul-23 06:26N 55°03' E 010°10'0 0.0
2014-Jul-23 05:29N 55°03' E 010°10'0 0.0
2014-Jul-23 04:29N 55°03' E 010°10'0 0.0
2014-Jul-23 03:32N 55°03' E 010°10'0 0.0
2014-Jul-23 00:32N 55°03' E 010°10'0 0.0
2014-Jul-22 23:32N 55°03' E 010°10'0 0.0
2014-Jul-22 19:08N 55°03' E 010°10'0 0.0
2014-Jul-22 17:08N 55°03' E 010°10'0 0.0
2014-Jul-22 15:33N 55°03' E 010°10'0 0.0
2014-Jul-22 14:31N 55°03' E 010°10'3 2.2
2014-Jul-22 13:17N 55°03' E 010°14'1 1.6
2014-Jul-22 12:23N 55°04' E 010°14'0 0.0
2014-Jul-22 11:33N 55°04' E 010°14'0 0.0
2014-Jul-22 10:33N 55°04' E 010°14'2 0.3
2014-Jul-22 04:22N 55°06' E 010°14'0 0.0
2014-Jul-22 03:31N 55°06' E 010°14'1 0.1
2014-Jul-21 18:14N 55°04' E 010°14'2 2.7
2014-Jul-21 17:27N 55°02' E 010°12'7 7.6
2014-Jul-21 16:32N 54°55' E 010°10'8 7.9
2014-Jul-21 15:33N 54°48' E 010°12'26 0.7
2014-Jul-20 03:19N 54°22' E 010°09'0 0.0
2014-Jul-20 00:31N 54°22' E 010°09'0 0.0
2014-Jul-19 23:31N 54°22' E 010°09'0 0.0
2014-Jul-19 22:10N 54°22' E 010°09'0 0.0
2014-Jul-19 21:28N 54°22' E 010°09'0 0.0
2014-Jul-19 20:31N 54°22' E 010°09'6 0.2
2014-Jul-18 11:33N 54°28' E 010°12'4 3.8
2014-Jul-18 10:29N 54°31' E 010°07'4 2.0
2014-Jul-18 08:18N 54°35' E 010°03'1 0.5
2014-Jul-18 06:32N 54°35' E 010°02'0 0.0
2014-Jul-18 05:32N 54°35' E 010°02'0 0.0
2014-Jul-18 04:32N 54°35' E 010°02'2 0.2
2014-Jul-17 15:33N 54°37' E 010°03'2 1.9
2014-Jul-17 14:33N 54°39' E 010°03'1 0.6
2014-Jul-17 13:25N 54°39' E 010°02'0 0.0
2014-Jul-17 12:32N 54°39' E 010°02'1 1.5
2014-Jul-17 11:33N 54°41' E 010°01'3 1.3
2014-Jul-17 09:09N 54°39' E 009°56'1 1.4
2014-Jul-17 08:33N 54°40' E 009°56'2 0.6
2014-Jul-17 05:15N 54°41' E 009°59'0 0.0
2014-Jul-17 04:30N 54°41' E 009°59'0 0.0
2014-Jul-17 03:30N 54°41' E 009°59'0 0.0
2014-Jul-16 18:07N 54°41' E 009°59'1 1.7
2014-Jul-16 17:33N 54°41' E 010°01'2 1.9
2014-Jul-16 16:34N 54°41' E 010°04'2 2.0
2014-Jul-16 15:34N 54°43' E 010°06'3 3.3
2014-Jul-16 14:33N 54°46' E 010°08'5 5.2
2014-Jul-16 13:34N 54°51' E 010°09'6 5.6
2014-Jul-16 12:34N 54°57' E 010°12'2 1.6
2014-Jul-16 11:33N 54°58' E 010°11'1 1.1
2014-Jul-16 10:32N 54°59' E 010°10'1 1.0
2014-Jul-16 09:34N 55°00' E 010°10'3 3.0
2014-Jul-16 08:30N 55°03' E 010°12'0 0.0
2014-Jul-15 12:25N 55°03' E 010°11'  

Dump ship's entire track history